Time;durP1;ratioP1;P1;durP2;ratioP2;P2;SDS_P1;SDS_P2;PMS_P1;PMS_P2;Temp;Humidity;BMP_temperature;BMP_pressure;BME280_temperature;BME280_humidity;BME280_pressure;Samples;Min_cycle;Max_cycle;Signal;HPM_P1;HPM_P2
2022/03/12 00:01:47;;;;;;;19.03;11.70;;;;;;;;;;5006980;28;20457;-90
2022/03/12 00:04:15;;;;;;;16.67;12.07;;;2.20;97.10;;;;;;5007683;28;20437;-93
2022/03/12 00:06:43;;;;;;;19.47;11.97;;;2.30;97.20;;;;;;5007869;28;21052;-88
2022/03/12 00:09:10;;;;;;;18.50;12.33;;;;;;;;;;5009745;28;20446;-87
2022/03/12 00:11:55;;;;;;;19.77;12.83;;;;;;;;;;5013025;28;20443;-90
2022/03/12 00:14:25;;;;;;;20.07;12.60;;;;;;;;;;5013386;28;20463;-89
2022/03/12 00:16:53;;;;;;;17.47;11.80;;;;;;;;;;5013581;28;20461;-90
2022/03/12 00:19:20;;;;;;;20.27;12.17;;;;;;;;;;5014186;28;20449;-90
2022/03/12 00:21:49;;;;;;;21.10;11.67;;;2.40;98.70;;;;;;5011926;28;20453;-90
2022/03/12 00:24:18;;;;;;;19.40;12.30;;;2.40;97.90;;;;;;5007116;28;20473;-91
2022/03/12 00:26:49;;;;;;;17.97;11.17;;;;;;;;;;5005223;28;20497;-90
2022/03/12 00:29:20;;;;;;;17.77;13.10;;;;;;;;;;5005719;28;20469;-91
2022/03/12 00:31:53;;;;;;;23.50;15.00;;;2.60;97.80;;;;;;5006548;28;20492;-90
2022/03/12 00:34:20;;;;;;;20.00;13.57;;;;;;;;;;5004454;28;20479;-90
2022/03/12 00:36:49;;;;;;;18.93;11.87;;;;;;;;;;5008238;28;20959;-89
2022/03/12 00:39:17;;;;;;;21.67;13.67;;;;;;;;;;5011868;28;20434;-92
2022/03/12 00:41:45;;;;;;;14.63;11.90;;;;;;;;;;5005196;28;20508;-91
2022/03/12 00:46:42;;;;;;;20.47;12.20;;;;;;;;;;5040105;22;20569;-89
2022/03/12 00:49:13;;;;;;;18.03;10.10;;;;;;;;;;5059219;22;20706;-89
2022/03/12 00:51:41;;;;;;;16.40;10.37;;;;;;;;;;5028644;28;20432;-90
2022/03/12 00:54:10;;;;;;;19.37;11.47;;;;;;;;;;5031709;28;20449;-92
2022/03/12 00:56:39;;;;;;;16.97;11.43;;;;;;;;;;5030321;28;20460;-89
2022/03/12 00:59:07;;;;;;;15.90;11.20;;;;;;;;;;5033794;28;20538;-89
2022/03/12 01:01:36;;;;;;;16.80;10.33;;;;;;;;;;5034676;28;20412;-90
2022/03/12 01:04:09;;;;;;;15.70;10.77;;;;;;;;;;5037032;22;20556;-89
2022/03/12 01:06:37;;;;;;;16.17;10.47;;;;;;;;;;5028735;28;20494;-90
2022/03/12 01:09:04;;;;;;;17.80;10.90;;;;;;;;;;5031595;28;20487;-88
2022/03/12 01:11:38;;;;;;;20.23;11.60;;;;;;;;;;5031996;28;20465;-89
2022/03/12 01:14:06;;;;;;;15.07;10.03;;;;;;;;;;5031962;28;20468;-90
2022/03/12 01:16:42;;;;;;;17.70;11.00;;;3.40;94.10;;;;;;5026506;28;20500;-89
2022/03/12 01:19:19;;;;;;;17.27;10.90;;;3.40;94.00;;;;;;5029092;28;20459;-89
2022/03/12 01:21:46;;;;;;;12.03;9.70;;;;;;;;;;5030649;28;21022;-89
2022/03/12 01:24:14;;;;;;;18.40;11.70;;;;;;;;;;5030429;28;20453;-89
2022/03/12 01:26:43;;;;;;;19.77;11.90;;;;;;;;;;5034258;22;20542;-89
2022/03/12 01:29:10;;;;;;;16.57;9.80;;;;;;;;;;5027174;28;20476;-89
2022/03/12 01:31:37;;;;;;;13.80;10.20;;;;;;;;;;5024875;28;20470;-89
2022/03/12 01:34:05;;;;;;;21.17;10.77;;;3.60;93.10;;;;;;5023985;28;20448;-89
2022/03/12 01:36:33;;;;;;;18.87;11.00;;;;;;;;;;5023780;28;20464;-87
2022/03/12 01:39:01;;;;;;;13.90;10.67;;;3.50;93.80;;;;;;5023833;28;20536;-90
2022/03/12 01:41:31;;;;;;;18.57;11.10;;;3.50;93.80;;;;;;5021181;28;20477;-91
2022/03/12 01:44:01;;;;;;;13.20;9.80;;;3.50;93.60;;;;;;5024721;28;20440;-90
2022/03/12 01:46:34;;;;;;;15.80;10.90;;;3.40;93.60;;;;;;5021409;28;20484;-89
2022/03/12 01:49:06;;;;;;;15.37;10.83;;;3.70;93.80;;;;;;5025255;28;20468;-90
2022/03/12 01:51:34;;;;;;;21.60;11.73;;;;;;;;;;5021468;28;20468;-89
2022/03/12 01:54:04;;;;;;;20.67;11.50;;;;;;;;;;5021812;28;20448;-90
2022/03/12 01:56:34;;;;;;;21.70;11.17;;;3.80;94.50;;;;;;5021376;28;20449;-91
2022/03/12 01:59:05;;;;;;;17.37;11.43;;;;;;;;;;5021784;28;20452;-91
2022/03/12 02:01:33;;;;;;;15.23;10.40;;;;;;;;;;5021369;28;20463;-91
2022/03/12 02:04:04;;;;;;;24.60;10.87;;;3.80;92.50;;;;;;5021763;28;20458;-91
2022/03/12 02:06:34;;;;;;;20.43;11.00;;;;;;;;;;5028009;22;20512;-89
2022/03/12 02:09:01;;;;;;;17.03;11.83;;;;;;;;;;5025336;28;20443;-90
2022/03/12 02:11:29;;;;;;;15.47;10.70;;;3.80;92.80;;;;;;5029677;22;20491;-91
2022/03/12 02:14:00;;;;;;;19.47;11.57;;;3.80;93.10;;;;;;5031097;22;20556;-90
2022/03/12 02:16:30;;;;;;;27.37;12.10;;;3.80;92.90;;;;;;5021559;28;20944;-90
2022/03/12 02:18:57;;;;;;;20.27;10.70;;;;;;;;;;5019011;28;20478;-90
2022/03/12 02:21:38;;;;;;;21.77;11.80;;;3.70;92.60;;;;;;5022279;28;20449;-91
2022/03/12 02:24:09;;;;;;;18.50;10.73;;;3.50;93.70;;;;;;5020718;28;20408;-90
2022/03/12 02:26:38;;;;;;;12.70;9.50;;;;;;;;;;5019948;28;20486;-89
2022/03/12 02:29:09;;;;;;;20.83;10.33;;;;;;;;;;5027334;28;20499;-90
2022/03/12 02:31:37;;;;;;;16.40;11.20;;;;;;;;;;5024515;28;20534;-89
2022/03/12 02:34:06;;;;;;;16.43;10.80;;;;;;;;;;5028775;28;20448;-89
2022/03/12 02:36:34;;;;;;;24.03;11.70;;;;;;;;;;5026489;28;20445;-88
2022/03/12 02:39:03;;;;;;;15.77;11.00;;;;;;;;;;5026454;28;20456;-89
2022/03/12 02:41:31;;;;;;;16.90;10.20;;;;;;;;;;5027128;28;20436;-90
2022/03/12 02:43:59;;;;;;;16.00;10.70;;;;;;;;;;5023410;28;20445;-89
2022/03/12 02:46:31;;;;;;;16.13;10.80;;;;;;;;;;5026750;28;20475;-91
2022/03/12 02:48:59;;;;;;;16.50;10.87;;;;;;;;;;5028137;28;20467;-89
2022/03/12 02:51:26;;;;;;;18.50;10.97;;;;;;;;;;5027477;28;20431;-89
2022/03/12 02:53:56;;;;;;;17.57;10.73;;;;;;;;;;5026979;28;20490;-89
2022/03/12 02:56:23;;;;;;;19.03;11.13;;;;;;;;;;5026220;28;20444;-89
2022/03/12 02:58:52;;;;;;;16.43;11.00;;;;;;;;;;5026979;28;20460;-89
2022/03/12 03:01:20;;;;;;;18.10;10.43;;;;;;;;;;5021308;28;20445;-89
2022/03/12 03:03:48;;;;;;;18.17;11.10;;;3.30;93.90;;;;;;5024483;28;20448;-89
2022/03/12 03:06:16;;;;;;;20.17;10.73;;;;;;;;;;5023971;28;20433;-89
2022/03/12 03:08:44;;;;;;;16.67;9.93;;;3.30;93.40;;;;;;5027410;28;20814;-88
2022/03/12 03:11:13;;;;;;;19.37;10.70;;;3.40;93.60;;;;;;5020705;28;20432;-89
2022/03/12 03:13:44;;;;;;;12.67;8.80;;;;;;;;;;5024627;28;20883;-89
2022/03/12 03:16:18;;;;;;;16.53;10.37;;;3.40;92.80;;;;;;5027217;28;20433;-90
2022/03/12 03:18:51;;;;;;;17.37;9.93;;;3.30;92.80;;;;;;5025511;28;20444;-89
2022/03/12 03:21:19;;;;;;;18.70;10.00;;;3.30;93.30;;;;;;5020024;28;20471;-88
2022/03/12 03:23:47;;;;;;;15.77;10.67;;;;;;;;;;5021281;28;20441;-89
2022/03/12 03:26:15;;;;;;;12.37;8.57;;;1.00;92.70;;;;;;5017974;28;20954;-90
2022/03/12 03:28:42;;;;;;;17.23;10.60;;;;;;;;;;5023622;28;20963;-88
2022/03/12 03:31:10;;;;;;;18.70;10.30;;;;;;;;;;5024597;28;20511;-90
2022/03/12 03:33:38;;;;;;;16.30;10.17;;;;;;;;;;5025499;28;20428;-89
2022/03/12 03:36:06;;;;;;;12.93;8.73;;;3.10;93.40;;;;;;5023693;28;20455;-89
2022/03/12 03:38:33;;;;;;;17.93;10.60;;;;;;;;;;5024313;28;20456;-89
2022/03/12 03:41:01;;;;;;;17.13;10.07;;;;;;;;;;5033997;22;20480;-88
2022/03/12 03:43:28;;;;;;;15.30;9.50;;;;;;;;;;5027741;28;20924;-89
2022/03/12 03:45:58;;;;;;;19.33;10.80;;;2.90;95.60;;;;;;5029501;28;20432;-89
2022/03/12 03:48:25;;;;;;;13.80;9.43;;;2.90;96.10;;;;;;5030389;28;20510;-88
2022/03/12 03:50:54;;;;;;;14.03;10.00;;;2.80;96.20;;;;;;5027866;28;20436;-88
2022/03/12 03:53:25;;;;;;;15.50;10.37;;;2.80;96.30;;;;;;5028565;28;20458;-88
2022/03/12 03:55:58;;;;;;;12.03;9.30;;;;;;;;;;5024994;28;20443;-90
2022/03/12 03:58:25;;;;;;;13.70;10.00;;;;;;;;;;5026113;28;20550;-91
2022/03/12 04:00:57;;;;;;;16.80;10.17;;;2.60;97.60;;;;;;5025472;28;20528;-90
2022/03/12 04:03:24;;;;;;;16.93;9.63;;;;;;;;;;5024813;28;20466;-90
2022/03/12 04:05:53;;;;;;;15.80;9.80;;;;;;;;;;5026608;28;20484;-90
2022/03/12 04:08:23;;;;;;;14.83;9.47;;;;;;;;;;5026477;28;20503;-89
2022/03/12 04:10:50;;;;;;;12.40;9.23;;;;;;;;;;5026271;28;20452;-90
2022/03/12 04:13:20;;;;;;;16.70;10.17;;;2.50;97.30;;;;;;5026648;28;20437;-89
2022/03/12 04:15:47;;;;;;;12.53;9.00;;;;;;;;;;5024574;28;20424;-90
2022/03/12 04:18:17;;;;;;;14.77;9.40;;;;;;;;;;5033959;22;20496;-91
2022/03/12 04:20:47;;;;;;;16.50;10.33;;;2.20;98.30;;;;;;5026186;28;21047;-90
2022/03/12 04:23:15;;;;;;;16.40;10.70;;;;;;;;;;5027860;22;20495;-89
2022/03/12 04:25:44;;;;;;;13.53;9.40;;;;;;;;;;5023244;28;20460;-89
2022/03/12 04:28:11;;;;;;;19.33;9.33;;;;;;;;;;5025286;28;20507;-90
2022/03/12 04:30:38;;;;;;;14.40;10.03;;;;;;;;;;5026900;28;20441;-89
2022/03/12 04:33:07;;;;;;;14.40;9.73;;;2.30;97.80;;;;;;5026483;28;20452;-89
2022/03/12 04:35:35;;;;;;;16.57;9.53;;;;;;;;;;5022791;28;20974;-91
2022/03/12 04:38:03;;;;;;;15.30;10.20;;;;;;;;;;5025324;28;20956;-90
2022/03/12 04:40:30;;;;;;;15.53;9.37;;;;;;;;;;5022099;28;20548;-89
2022/03/12 04:42:58;;;;;;;15.40;9.33;;;;;;;;;;5020911;28;20459;-89
2022/03/12 04:45:49;;;;;;;13.80;8.40;;;2.50;96.50;;;;;;5026832;28;20440;-90
2022/03/12 04:48:36;;;;;;;13.17;9.13;;;;;;;;;;5035061;22;20484;-89
2022/03/12 04:51:03;;;;;;;14.33;9.97;;;;;;;;;;5026723;28;20835;-89
2022/03/12 04:53:31;;;;;;;17.63;9.03;;;;;;;;;;5030697;28;20459;-90
2022/03/12 04:55:58;;;;;;;15.10;10.00;;;;;;;;;;5026357;28;20511;-90
2022/03/12 04:58:28;;;;;;;11.57;8.87;;;;;;;;;;5034924;22;20499;-89
2022/03/12 05:00:55;;;;;;;13.63;9.10;;;;;;;;;;5033071;22;20548;-89
2022/03/12 05:03:25;;;;;;;16.57;9.17;;;2.70;95.80;;;;;;5028360;28;20448;-89
2022/03/12 05:05:53;;;;;;;17.53;9.27;;;2.70;96.00;;;;;;5025928;28;20465;-88
2022/03/12 05:08:23;;;;;;;15.60;10.13;;;2.60;96.60;;;;;;5027369;28;20480;-90
2022/03/12 05:10:53;;;;;;;15.40;10.00;;;2.60;95.70;;;;;;5032303;22;20556;-89
2022/03/12 05:13:22;;;;;;;12.60;9.20;;;2.90;95.30;;;;;;5028869;28;20448;-89
2022/03/12 05:15:53;;;;;;;13.93;9.03;;;3.00;95.00;;;;;;5034705;22;20491;-89
2022/03/12 05:18:21;;;;;;;11.83;8.77;;;3.00;94.70;;;;;;5006238;28;20450;-89
2022/03/12 05:20:49;;;;;;;17.33;10.43;;;2.90;94.60;;;;;;5010758;28;20445;-89
2022/03/12 05:23:17;;;;;;;14.60;9.20;;;3.00;94.70;;;;;;5008624;28;20448;-89
2022/03/12 05:25:50;;;;;;;20.13;8.77;;;3.00;94.70;;;;;;5009455;28;20465;-89
2022/03/12 05:28:23;;;;;;;15.10;9.40;;;3.00;94.40;;;;;;5101842;22;20476;-88
2022/03/12 05:30:57;;;;;;;16.63;10.07;;;3.10;94.20;;;;;;5044644;22;20507;-89
2022/03/12 05:33:25;;;;;;;12.53;8.83;;;;;;;;;;5009537;28;20445;-90
2022/03/12 05:35:54;;;;;;;14.33;10.00;;;;;;;;;;5009236;28;20445;-89
2022/03/12 05:38:21;;;;;;;13.40;9.23;;;3.10;94.40;;;;;;5010671;28;20790;-89
2022/03/12 05:40:50;;;;;;;15.33;10.33;;;;;;;;;;5032864;22;20491;-91
2022/03/12 05:43:18;;;;;;;16.57;10.10;;;2.90;96.00;;;;;;5027501;28;20441;-89
2022/03/12 05:45:48;;;;;;;15.00;10.47;;;2.80;96.70;;;;;;5025938;28;20448;-89
2022/03/12 05:48:20;;;;;;;15.33;10.90;;;2.80;97.60;;;;;;5026239;28;20508;-90
2022/03/12 05:50:50;;;;;;;16.13;11.27;;;2.70;97.30;;;;;;5020368;28;20459;-89
2022/03/12 05:53:20;;;;;;;20.53;10.07;;;2.80;96.70;;;;;;5025624;28;20532;-89
2022/03/12 05:55:51;;;;;;;14.53;9.50;;;2.90;95.30;;;;;;5033240;28;20451;-89
2022/03/12 05:58:21;;;;;;;13.97;9.67;;;2.90;95.00;;;;;;5045458;22;20487;-89
2022/03/12 06:00:52;;;;;;;11.50;8.47;;;2.90;95.70;;;;;;5023028;28;20436;-89
2022/03/12 06:03:21;;;;;;;13.50;8.83;;;3.90;95.70;;;;;;5027506;28;20447;-89
2022/03/12 06:05:56;;;;;;;13.33;9.90;;;;;;;;;;5032262;22;20484;-88
2022/03/12 06:08:24;;;;;;;16.67;9.80;;;;;;;;;;5035522;23;20559;-89
2022/03/12 06:10:56;;;;;;;15.93;9.60;;;2.80;95.60;;;;;;5025739;28;20476;-89
2022/03/12 06:13:23;;;;;;;20.37;9.33;;;;;;;;;;5025210;28;20511;-89
2022/03/12 06:15:58;;;;;;;14.83;9.70;;;;;;;;;;5026014;28;20491;-89
2022/03/12 06:18:28;;;;;;;14.00;8.10;;;;;;;;;;5025398;28;20795;-89
2022/03/12 06:20:57;;;;;;;12.50;7.27;;;3.10;92.40;;;;;;5034285;22;20587;-89
2022/03/12 06:23:24;;;;;;;11.67;8.20;;;;;;;;;;5023178;28;20496;-90
2022/03/12 06:25:52;;;;;;;12.97;9.77;;;;;;;;;;5025106;28;20828;-90
2022/03/12 06:28:21;;;;;;;17.20;8.33;;;;;;;;;;5026286;28;20496;-90
2022/03/12 06:30:53;;;;;;;10.17;7.40;;;;;;;;;;5022624;28;20451;-90
2022/03/12 06:33:20;;;;;;;13.07;7.43;;;;;;;;;;5023897;28;20452;-89
2022/03/12 06:35:48;;;;;;;23.40;8.43;;;3.20;90.40;;;;;;5024684;28;20458;-90
2022/03/12 06:38:16;;;;;;;18.53;8.23;;;;;;;;;;5026640;28;20441;-88
2022/03/12 06:40:44;;;;;;;10.37;6.50;;;3.60;90.30;;;;;;5025351;28;20524;-90
2022/03/12 06:43:19;;;;;;;12.30;7.57;;;;;;;;;;5027553;28;20429;-89
2022/03/12 06:45:46;;;;;;;11.90;7.20;;;;;;;;;;5024624;28;20443;-89
2022/03/12 06:48:13;;;;;;;11.93;8.07;;;;;;;;;;5028554;28;20475;-89
2022/03/12 06:50:40;;;;;;;10.67;7.30;;;;;;;;;;5025803;28;20944;-89
2022/03/12 06:53:09;;;;;;;17.50;13.10;;;;;;;;;;5023673;28;20456;-90
2022/03/12 06:55:36;;;;;;;20.77;9.20;;;;;;;;;;5018456;28;20444;-90
2022/03/12 06:58:03;;;;;;;12.50;7.20;;;;;;;;;;5019253;28;20452;-89
2022/03/12 07:00:32;;;;;;;13.53;9.33;;;5.00;84.60;;;;;;5019599;28;20444;-89
2022/03/12 07:02:59;;;;;;;16.03;13.00;;;;;;;;;;5020614;28;20951;-88
2022/03/12 07:05:27;;;;;;;16.20;11.00;;;;;;;;;;5018076;28;20453;-88
2022/03/12 07:07:54;;;;;;;13.50;8.47;;;;;;;;;;5017037;28;20488;-87
2022/03/12 07:10:25;;;;;;;10.10;7.60;;;5.60;81.70;;;;;;5020143;28;20452;-90
2022/03/12 07:12:54;;;;;;;10.67;8.33;;;;;;;;;;5021240;28;20796;-89
2022/03/12 07:15:22;;;;;;;13.90;8.70;;;;;;;;;;5021354;28;20511;-89
2022/03/12 07:17:49;;;;;;;13.30;9.43;;;;;;;;;;5022229;28;20453;-88
2022/03/12 07:20:17;;;;;;;12.03;9.10;;;6.50;78.50;;;;;;5025624;28;20480;-91
2022/03/12 07:22:53;;;;;;;13.93;8.37;;;6.70;78.00;;;;;;5025412;28;20452;-89
2022/03/12 07:25:20;;;;;;;14.07;9.60;;;;;;;;;;5021769;28;20444;-91
2022/03/12 07:27:49;;;;;;;13.80;10.07;;;;;;;;;;5013645;28;20538;-89
2022/03/12 07:30:18;;;;;;;12.17;9.70;;;;;;;;;;5025982;23;20480;-89
2022/03/12 07:32:46;;;;;;;13.77;9.40;;;6.90;77.80;;;;;;5013556;28;20529;-88
2022/03/12 07:35:15;;;;;;;11.03;8.80;;;7.10;76.20;;;;;;4997917;28;20449;-87
2022/03/12 07:37:43;;;;;;;18.13;9.13;;;7.50;76.40;;;;;;4995011;28;20453;-88
2022/03/12 07:40:12;;;;;;;11.33;9.70;;;7.80;74.80;;;;;;5001071;28;20457;-89
2022/03/12 07:42:40;;;;;;;13.00;9.70;;;;;;;;;;4988115;28;20457;-89
2022/03/12 07:45:11;;;;;;;14.93;9.77;;;8.60;72.30;;;;;;4995074;28;20450;-89
2022/03/12 07:47:38;;;;;;;16.80;10.47;;;;;;;;;;4990089;28;20813;-90
2022/03/12 07:50:08;;;;;;;17.03;9.63;;;8.30;72.10;;;;;;4994789;28;20453;-90
2022/03/12 07:52:35;;;;;;;19.47;11.63;;;;;;;;;;4997389;28;20457;-91
2022/03/12 07:55:02;;;;;;;17.03;10.80;;;;;;;;;;4994941;28;20453;-90
2022/03/12 07:57:29;;;;;;;14.70;10.40;;;;;;;;;;4991468;28;20457;-93
2022/03/12 07:59:57;;;;;;;16.00;10.00;;;;;;;;;;4992366;28;20441;-91
2022/03/12 08:02:25;;;;;;;13.93;9.43;;;;;;;;;;4995767;28;20442;-94
2022/03/12 08:04:52;;;;;;;16.70;10.67;;;;;;;;;;4995705;28;20448;-90
2022/03/12 08:07:20;;;;;;;18.03;11.20;;;;;;;;;;4994591;28;20456;-92
2022/03/12 08:09:47;;;;;;;19.30;11.03;;;;;;;;;;4994728;28;20543;-89
2022/03/12 08:12:16;;;;;;;13.20;10.57;;;;;;;;;;4994934;28;20468;-93
2022/03/12 08:14:45;;;;;;;13.23;10.50;;;;;;;;;;5001893;28;20932;-92
2022/03/12 08:17:12;;;;;;;15.13;10.33;;;;;;;;;;5018605;28;20440;-88
2022/03/12 08:19:40;;;;;;;19.77;10.83;;;;;;;;;;5025057;28;20453;-89
2022/03/12 08:22:08;;;;;;;18.13;11.67;;;;;;;;;;5021533;28;20452;-88
2022/03/12 08:24:35;;;;;;;14.70;11.23;;;;;;;;;;5003418;28;20531;-88
2022/03/12 08:27:02;;;;;;;17.83;10.90;;;;;;;;;;4991258;28;20478;-90
2022/03/12 08:29:29;;;;;;;13.03;10.90;;;;;;;;;;4989069;28;20485;-89
2022/03/12 08:31:56;;;;;;;18.37;11.93;;;;;;;;;;4999888;23;20478;31
2022/03/12 08:34:24;;;;;;;15.60;10.90;;;;;;;;;;4950105;29;20468;-92
2022/03/12 08:36:52;;;;;;;17.77;11.23;;;;;;;;;;4955663;29;20447;-92
2022/03/12 08:39:20;;;;;;;18.77;11.83;;;;;;;;;;4953478;29;20448;-90
2022/03/12 08:41:47;;;;;;;16.40;12.20;;;;;;;;;;4953962;29;20447;-90
2022/03/12 08:44:14;;;;;;;17.27;11.90;;;;;;;;;;4951842;29;20432;-90
2022/03/12 08:46:47;;;;;;;17.53;11.93;;;;;;;;;;4979192;23;20476;-89
2022/03/12 08:49:16;;;;;;;14.80;12.80;;;12.00;61.80;;;;;;5013362;28;20560;-92
2022/03/12 08:51:43;;;;;;;17.33;11.57;;;;;;;;;;5007751;28;20458;-90
2022/03/12 08:54:11;;;;;;;18.20;10.80;;;;;;;;;;5007220;28;20472;-90
2022/03/12 08:56:39;;;;;;;15.30;11.03;;;;;;;;;;5005423;28;20823;-92
2022/03/12 08:59:07;;;;;;;13.80;10.50;;;;;;;;;;5005234;28;20443;-91
2022/03/12 09:01:34;;;;;;;15.37;10.17;;;13.20;63.10;;;;;;5025680;22;20630;-89
2022/03/12 09:04:02;;;;;;;19.43;10.20;;;;;;;;;;5005410;28;20450;-89
2022/03/12 09:06:32;;;;;;;13.03;10.70;;;;;;;;;;5005791;28;20433;-89
2022/03/12 09:08:59;;;;;;;19.30;11.03;;;;;;;;;;5002917;28;20504;-91
2022/03/12 09:11:27;;;;;;;13.90;11.07;;;13.20;59.70;;;;;;5005122;28;20496;-88
2022/03/12 09:13:55;;;;;;;20.13;12.90;;;;;;;;;;5008493;28;20442;-89
2022/03/12 09:16:24;;;;;;;16.00;11.60;;;;;;;;;;5021065;22;20489;-88
2022/03/12 09:18:52;;;;;;;18.07;12.90;;;;;;;;;;5014084;28;20454;-89
2022/03/12 09:21:19;;;;;;;15.33;11.80;;;;;;;;;;5013872;22;20563;-89
2022/03/12 09:23:46;;;;;;;16.20;11.87;;;;;;;;;;5001856;28;20445;-89
2022/03/12 09:26:13;;;;;;;21.30;13.53;;;;;;;;;;4999940;28;20474;-90
2022/03/12 09:28:42;;;;;;;15.33;12.33;;;14.80;59.00;;;;;;5003302;28;20492;-90
2022/03/12 09:31:09;;;;;;;15.63;13.67;;;;;;;;;;4999671;28;20449;-91
2022/03/12 09:33:38;;;;;;;17.20;12.70;;;;;;;;;;5001722;28;20454;-89
2022/03/12 09:36:07;;;;;;;17.60;14.40;;;;;;;;;;5000414;28;20456;-92
2022/03/12 09:39:08;;;;;;;20.57;13.33;;;14.70;63.50;;;;;;5006017;28;20520;-95
2022/03/12 09:41:44;;;;;;;15.80;13.33;;;;;;;;;;5008225;28;20453;-94
2022/03/12 09:44:16;;;;;;;27.97;15.47;;;;;;;;;;5012263;22;20446;-92
2022/03/12 09:46:43;;;;;;;15.90;13.20;;;;;;;;;;5003040;28;20472;-90
2022/03/12 09:49:12;;;;;;;17.50;13.80;;;14.40;54.00;;;;;;5002056;28;20496;-88
2022/03/12 09:51:39;;;;;;;18.73;13.53;;;;;;;;;;4999427;28;20448;-91
2022/03/12 09:54:08;;;;;;;16.50;13.60;;;;;;;;;;5000830;28;20940;-89
2022/03/12 09:56:36;;;;;;;17.07;14.50;;;;;;;;;;5000019;28;20445;-91
2022/03/12 09:59:04;;;;;;;16.20;13.57;;;;;;;;;;5002025;28;20537;-90
2022/03/12 10:01:32;;;;;;;16.20;13.30;;;;;;;;;;4998828;28;20453;-91
2022/03/12 10:04:00;;;;;;;18.27;14.00;;;;;;;;;;5002910;28;20453;-94
2022/03/12 10:06:30;;;;;;;15.87;13.90;;;;;;;;;;4993993;28;20458;-90
2022/03/12 10:08:57;;;;;;;21.43;14.63;;;;;;;;;;4998546;28;20489;-92
2022/03/12 10:11:25;;;;;;;20.77;13.83;;;;;;;;;;4998518;28;20932;-94
2022/03/12 10:13:53;;;;;;;18.93;15.10;;;;;;;;;;5004231;28;20449;-89
2022/03/12 10:16:20;;;;;;;16.40;14.30;;;;;;;;;;4998212;28;20875;-89
2022/03/12 10:18:48;;;;;;;18.80;13.97;;;16.20;51.90;;;;;;5000462;28;20456;-89
2022/03/12 10:21:16;;;;;;;23.57;15.23;;;;;;;;;;4999911;28;20556;-89
2022/03/12 10:23:46;;;;;;;21.83;14.50;;;;;;;;;;5003716;28;20453;-92
2022/03/12 10:26:13;;;;;;;16.73;13.10;;;;;;;;;;4995813;28;20478;-91
2022/03/12 10:28:41;;;;;;;19.70;14.33;;;;;;;;;;4979839;28;20481;-93
2022/03/12 10:31:09;;;;;;;14.57;13.00;;;;;;;;;;4980016;28;20439;-93
2022/03/12 10:33:37;;;;;;;16.77;13.70;;;16.30;51.80;;;;;;4982446;28;20442;-91
2022/03/12 10:36:14;;;;;;;16.43;13.30;;;16.40;51.90;;;;;;4978490;28;20456;-89
2022/03/12 10:38:42;;;;;;;21.93;13.83;;;16.30;52.40;;;;;;4979027;28;20462;-89
2022/03/12 10:41:10;;;;;;;17.43;15.00;;;;;;;;;;4976059;28;20453;-90
2022/03/12 10:43:45;;;;;;;15.50;13.20;;;15.00;50.00;;;;;;4981693;28;20454;-92
2022/03/12 10:46:23;;;;;;;22.53;14.23;;;16.40;52.20;;;;;;4981463;28;20473;-93
2022/03/12 10:48:58;;;;;;;17.70;13.57;;;;;;;;;;4985494;28;20545;-92
2022/03/12 10:51:30;;;;;;;17.63;14.03;;;16.50;52.20;;;;;;4980407;28;20556;-95
2022/03/12 10:54:05;;;;;;;15.70;13.90;;;;;;;;;;4978179;28;20468;-90
2022/03/12 10:56:44;;;;;;;20.37;12.43;;;16.30;52.10;;;;;;4979930;28;20533;-94
2022/03/12 10:59:16;;;;;;;16.33;13.63;;;16.30;52.00;;;;;;4971494;28;20446;-94
2022/03/12 11:01:51;;;;;;;14.80;12.33;;;;;;;;;;4981167;28;20559;-94
2022/03/12 11:04:19;;;;;;;17.90;13.57;;;;;;;;;;4981568;28;20508;-93
2022/03/12 11:06:48;;;;;;;17.30;12.50;;;;;;;;;;4986751;28;20463;-93
2022/03/12 11:09:18;;;;;;;18.80;13.43;;;16.40;52.80;;;;;;4985145;28;20492;-95
2022/03/12 11:11:46;;;;;;;20.20;14.00;;;16.60;53.10;;;;;;4975808;28;20524;-93
2022/03/12 11:14:20;;;;;;;16.63;12.60;;;16.90;54.70;;;;;;4972697;28;20446;-94
2022/03/12 11:16:52;;;;;;;14.63;12.87;;;16.70;53.90;;;;;;4972701;28;20439;-94
2022/03/12 11:19:37;;;;;;;14.60;12.60;;;17.00;55.30;;;;;;4977314;28;20462;-94
2022/03/12 11:22:10;;;;;;;15.90;12.87;;;;;;;;;;4976897;28;20533;-96
2022/03/12 11:24:48;;;;;;;18.63;13.67;;;;;;;;;;4972466;28;20430;-95
2022/03/12 11:27:31;;;;;;;16.80;13.90;;;17.10;51.80;;;;;;4975427;28;20505;-94
2022/03/12 11:29:59;;;;;;;18.20;13.80;;;;;;;;;;4975572;28;20486;-93
2022/03/12 11:32:27;;;;;;;16.63;12.20;;;;;;;;;;4979104;28;20457;-92
2022/03/12 11:35:21;;;;;;;14.80;13.00;;;;;;;;;;4982365;28;21006;-94
2022/03/12 11:38:04;;;;;;;14.60;12.03;;;;;;;;;;4989853;28;20462;-95
2022/03/12 11:40:41;;;;;;;14.33;11.73;;;;;;;;;;4968902;28;20454;-95
2022/03/12 11:43:22;;;;;;;15.40;12.60;;;;;;;;;;4983955;28;20458;-95
2022/03/12 11:45:53;;;;;;;14.67;12.43;;;;;;;;;;4938239;28;20513;-95
2022/03/12 11:51:04;;;;;;;13.17;10.93;;;16.70;57.70;;;;;;5017539;23;20552;-94
2022/03/12 11:53:39;;;;;;;12.33;11.03;;;;;;;;;;4987245;28;20464;-94
2022/03/12 11:56:19;;;;;;;13.93;12.57;;;;;;;;;;4983212;28;20449;-96
2022/03/12 11:58:48;;;;;;;14.97;11.83;;;;;;;;;;5004923;23;20492;-93
2022/03/12 12:01:20;;;;;;;16.27;11.67;;;;;;;;;;5005227;28;20481;-93
2022/03/12 12:03:48;;;;;;;12.17;10.87;;;;;;;;;;4975371;28;20505;-94
2022/03/12 12:06:34;;;;;;;13.50;10.97;;;17.20;56.60;;;;;;5009150;28;20480;-93
2022/03/12 12:09:01;;;;;;;14.70;10.90;;;;;;;;;;4974977;28;20524;-90
2022/03/12 12:11:35;;;;;;;19.10;12.13;;;;;;;;;;4970847;28;20484;-91
2022/03/12 12:14:03;;;;;;;14.80;10.93;;;;;;;;;;5056010;22;20535;-93
2022/03/12 12:16:38;;;;;;;12.23;10.63;;;;;;;;;;5008801;28;20492;-94
2022/03/12 12:19:08;;;;;;;13.67;10.17;;;;;;;;;;5010333;28;20456;-93
2022/03/12 12:21:35;;;;;;;11.47;9.77;;;;;;;;;;5008557;28;20457;-94
2022/03/12 12:24:30;;;;;;;14.53;10.37;;;17.80;58.00;;;;;;5000663;28;20484;-96
2022/03/12 12:27:00;;;;;;;12.47;9.80;;;18.00;59.10;;;;;;4999332;28;20481;-92
2022/03/12 12:29:45;;;;;;;10.23;9.10;;;16.40;89.20;;;;;;4998590;28;20472;-95
2022/03/12 12:32:14;;;;;;;13.43;10.07;;;16.90;59.90;;;;;;4999285;28;20441;-94
2022/03/12 12:34:59;;;;;;;10.17;7.60;;;17.40;60.90;;;;;;4999697;28;20433;-93
2022/03/12 12:37:41;;;;;;;9.93;6.70;;;17.70;62.20;;;;;;4995183;28;20472;-94
2022/03/12 12:40:20;;;;;;;11.00;7.03;;;18.30;65.50;;;;;;5002589;28;20457;-95
2022/03/12 12:42:50;;;;;;;9.30;6.77;;;18.10;61.10;;;;;;5006773;28;20449;-95
2022/03/12 12:45:19;;;;;;;8.03;7.03;;;18.10;60.80;;;;;;5000086;28;20500;-95
2022/03/12 12:47:46;;;;;;;8.37;6.63;;;;;;;;;;5001030;28;20445;-90
2022/03/12 12:50:25;;;;;;;10.40;8.20;;;18.10;59.60;;;;;;5007221;28;20487;-94
2022/03/12 12:53:19;;;;;;;7.80;7.00;;;18.60;60.00;;;;;;5007714;28;20450;-92
2022/03/12 12:55:47;;;;;;;10.57;7.90;;;;;;;;;;5007251;28;21089;-95
2022/03/12 12:58:16;;;;;;;9.63;8.40;;;;;;;;;;5007132;28;20485;-94
2022/03/12 13:00:46;;;;;;;9.27;8.23;;;18.10;59.30;;;;;;5002088;28;20518;-93
2022/03/12 13:03:48;;;;;;;7.97;7.17;;;18.50;59.30;;;;;;5009050;28;20537;-93
2022/03/12 13:06:39;;;;;;;8.37;7.47;;;18.50;59.20;;;;;;5002811;28;20540;-92
2022/03/12 13:09:10;;;;;;;11.30;9.63;;;18.10;57.30;;;;;;5004958;28;20445;-93
2022/03/12 13:11:40;;;;;;;11.40;8.87;;;18.10;58.10;;;;;;5004739;28;20545;-93
2022/03/12 13:14:15;;;;;;;11.13;9.30;;;18.00;59.00;;;;;;5019516;28;20477;-93
2022/03/12 13:16:52;;;;;;;9.60;8.60;;;18.40;57.70;;;;;;5027875;28;20455;-94
2022/03/12 13:19:46;;;;;;;10.17;8.80;;;17.60;58.40;;;;;;5026579;28;20436;-94
2022/03/12 13:22:18;;;;;;;11.13;9.53;;;;;;;;;;5021392;28;20447;-93
2022/03/12 13:24:52;;;;;;;11.90;10.60;;;17.10;57.40;;;;;;5033109;22;20568;-93
2022/03/12 13:27:29;;;;;;;13.17;10.10;;;15.90;58.60;;;;;;5025223;28;20512;-92
2022/03/12 13:30:16;;;;;;;13.20;10.57;;;17.00;59.80;;;;;;5026209;28;20494;-91
2022/03/12 13:32:46;;;;;;;11.63;10.43;;;17.40;59.30;;;;;;5021222;28;20480;-94
2022/03/12 13:35:21;;;;;;;12.37;10.63;;;17.30;58.70;;;;;;4971468;28;20456;-93
2022/03/12 13:37:48;;;;;;;12.37;10.07;;;;;;;;;;5030863;28;20424;-92
2022/03/12 13:40:21;;;;;;;10.07;9.07;;;;;;;;;;5037279;28;20460;-94
2022/03/12 13:42:50;;;;;;;14.60;10.70;;;17.60;58.50;;;;;;5023764;28;20444;-95
2022/03/12 13:45:23;;;;;;;15.53;10.73;;;17.50;57.40;;;;;;5026394;28;20453;-94
2022/03/12 13:47:59;;;;;;;19.47;10.87;;;17.70;57.00;;;;;;5028051;28;20440;-94
2022/03/12 13:50:46;;;;;;;13.43;10.97;;;17.30;56.50;;;;;;4984280;28;20508;-92
2022/03/12 13:53:14;;;;;;;12.80;11.50;;;17.10;58.80;;;;;;5030119;28;20457;-93
2022/03/12 13:55:45;;;;;;;15.40;11.10;;;17.80;58.10;;;;;;4971917;29;20516;-94
2022/03/12 13:58:15;;;;;;;15.00;12.03;;;;;;;;;;4972411;29;20458;-93
2022/03/12 14:01:15;;;;;;;15.53;12.30;;;16.70;58.70;;;;;;4971031;29;20494;-95